岡山グライダークラブ活動状況掲示板

岡山グライダークラブ
岡山市浦安南町639-1 岡南飛行場
 使用機:シャイベ式 SF25C型 ファルケ   JA2330
      ヴァレンティン式17E型 タイフーン  JA2342
 練習日:毎日曜日  クラブルーム:電話 086-265-1810
この掲示板は岡山グライダークラブの活動状況をお知らせする掲示板です。
!!!この掲示板は投稿規制をしています。!!!
クラブ関連各種情報は 岡山グライダークラブクラブルーム      を       .
  ブリーフイング情報は  岡山グライダークラブブリーフィングルーム  をご覧下さい。 .
※写真はクリックすると拡大して見ることが出来ます。
岡南飛行場へのアクセス等は 岡南飛行場管理事務所 をご覧ください。
クラブの ホームページ ができました。

!!!お待たせしました。新型コロナ感染症の感染が下火になったことから見学者等の受入を再開します。!!!
  注)なお、見学等の際には一般的な感染対策(マスク、ソーシャルディスタンス、黙食等)を順守してください。

 
09月25日
by OGC at 2022/9/25(日) 19:32:15 No.20220925193039  削除コメント
640 x 480 x 80,580バイト
No.1

09月25日
本日の参加者
  会員      14名
  その他     00名


@本日の様子






METAR
RJBK 250000Z 08003KT 350V110 30KM FEW030CU BKN/// 21/14 Q1016 A3003
RJOB 250000Z 04003KT 350V100 9999 FEW030 SCT180 BKN/// 20/11 Q1017
RJOT 250000Z 09007KT 060V150 9999 FEW025 SCT170 BKN/// 21/15 Q1017
RJOA 250000Z 09005KT 060V150 9999 FEW020 SCT160 BKN/// 19/13 Q1017
TAF
RJOB 242305Z 2500/2606 08004KT 9999 FEW030
RJOT 242306Z 2500/2606 07008KT 9999 FEW025
RJOA 242305Z 2500/2606 12006KT 9999 FEW025
     BECMG 2512/2515 32007KT

本日は晴れ、風は穏やか、訓練生は実地試験に向け、科目の練習に出たり、TGLの訓練をしたり
各々の課題克服に向け、がんばっていました。一方、ライセンサーは上昇気流を探して飛び回って
いましたが、今日は上がらない一日だったようです。


解散    18:00

1番機  10:35離陸 撤収機  17:00着陸 

SF25C JA2330 ファルケ     09Flt.3h40min  
17E   JA2342 タイフーン    00Flt.0h00min
合計                    09Flt.3h40min

    << 戻る || ホームページ || 最新の掲示板へ